Time;durP1;ratioP1;P1;durP2;ratioP2;P2;SDS_P1;SDS_P2;PMS_P1;PMS_P2;Temp;Humidity;BMP_temperature;BMP_pressure;BME280_temperature;BME280_humidity;BME280_pressure;Samples;Min_cycle;Max_cycle;Signal;HPM_P1;HPM_P2
2022/12/02 00:02:25;;;;;;;64.28;33.17;;;;;;;;;;5002518;28;20539;-76
2022/12/02 00:04:55;;;;;;;71.00;34.70;;;;;;;;;;4979275;28;20412;-75
2022/12/02 00:07:22;;;;;;;75.20;35.30;;;;;;;;;;5008508;28;20022;-75
2022/12/02 00:09:48;;;;;;;73.00;35.53;;;;;;;;;;4984351;28;20030;-73
2022/12/02 00:12:24;;;;;;;70.88;34.60;;;;;;;;;;5001838;28;20121;-75
2022/12/02 00:14:57;;;;;;;69.38;36.35;;;;;;;;;;4991826;28;20026;-74
2022/12/02 00:17:26;;;;;;;74.18;36.60;;;;;;;;;;4989679;28;20107;-74
2022/12/02 00:19:52;;;;;;;70.00;35.38;;;;;;;;;;5004288;28;20050;-74
2022/12/02 00:22:21;;;;;;;71.28;37.15;;;;;;;;;;4987943;28;20050;-74
2022/12/02 00:24:47;;;;;;;70.30;35.72;;;;;;;;;;4996534;28;20112;-74
2022/12/02 00:27:13;;;;;;;70.85;36.17;;;;;;;;;;4991477;28;20022;-76
2022/12/02 00:29:39;;;;;;;66.20;35.65;;;;;;;;;;4999628;28;20026;-75
2022/12/02 00:32:05;;;;;;;71.40;35.15;;;;;;;;;;5002659;28;20197;-75
2022/12/02 00:34:31;;;;;;;73.38;37.35;;;;;;;;;;5006914;28;20030;-76
2022/12/02 00:36:57;;;;;;;75.25;40.17;;;;;;;;;;4978834;28;20062;-75
2022/12/02 00:39:23;;;;;;;71.80;37.17;;;;;;;;;;5007230;28;20511;-76
2022/12/02 00:41:49;;;;;;;71.63;36.47;;;;;;;;;;5001514;28;20026;-76
2022/12/02 00:47:00;;;;;;;73.18;37.47;;;;;;;;;;5009902;28;20092;-74
2022/12/02 00:49:26;;;;;;;71.97;37.15;;;;;;;;;;4997529;28;20030;-75
2022/12/02 00:51:52;;;;;;;75.18;40.00;;;;;;;;;;4986228;28;20110;-75
2022/12/02 00:54:20;;;;;;;74.45;36.85;;;;;;;;;;5004891;28;20488;-75
2022/12/02 00:56:47;;;;;;;73.28;36.67;;;;;;;;;;4978610;28;20030;-75
2022/12/02 00:59:13;;;;;;;75.75;36.10;;;;;;;;;;4990868;28;20042;-75
2022/12/02 01:01:43;;;;;;;75.85;38.70;;;;;;;;;;4982059;28;20017;-75
2022/12/02 01:04:09;;;;;;;74.05;37.25;;;;;;;;;;5001452;28;20481;-72
2022/12/02 01:06:38;;;;;;;76.38;37.38;;;;;;;;;;5007400;28;20033;-75
2022/12/02 01:09:04;;;;;;;72.32;35.83;;;;;;;;;;4977557;28;20419;-75
2022/12/02 01:11:30;;;;;;;72.00;36.50;;;;;;;;;;5012263;28;20150;-74
2022/12/02 01:13:56;;;;;;;74.25;35.17;;;;;;;;;;4986454;28;20026;-74
2022/12/02 01:16:22;;;;;;;70.57;35.88;;;;;;;;;;4987276;28;20026;-74
2022/12/02 01:18:48;;;;;;;68.07;34.63;;;;;;;;;;4993218;28;20053;-73
2022/12/02 01:21:14;;;;;;;73.93;37.13;;;;;;;;;;4982005;28;20404;-73
2022/12/02 01:23:40;;;;;;;74.95;35.78;;;;;;;;;;4990135;28;20030;-75
2022/12/02 01:26:06;;;;;;;73.70;36.28;;;;;;;;;;4987843;28;20088;-74
2022/12/02 01:28:32;;;;;;;70.90;34.75;;;;;;;;;;5002207;28;20080;-74
2022/12/02 01:30:58;;;;;;;74.53;37.65;;;;;;;;;;4997750;28;20034;-73
2022/12/02 01:33:24;;;;;;;75.45;37.72;;;;;;;;;;4993400;28;20030;-73
2022/12/02 01:35:50;;;;;;;74.05;35.22;;;;;;;;;;4986926;28;20022;-74
2022/12/02 01:38:16;;;;;;;70.13;35.58;;;;;;;;;;5003539;28;20030;-75
2022/12/02 01:40:42;;;;;;;72.68;37.50;;;;;;;;;;5011354;28;20044;-74
2022/12/02 01:43:08;;;;;;;74.65;35.75;;;;;;;;;;4999627;28;20021;-74
2022/12/02 01:45:35;;;;;;;80.75;38.08;;;;;;;;;;5009469;28;20042;-74
2022/12/02 01:48:01;;;;;;;75.63;37.40;;;;;;;;;;5006234;28;20034;-74
2022/12/02 01:50:28;;;;;;;78.35;35.30;;;;;;;;;;4984618;28;20034;-74
2022/12/02 01:52:54;;;;;;;79.75;35.88;;;;;;;;;;5012279;28;20029;-74
2022/12/02 01:55:21;;;;;;;82.75;38.30;;;;;;;;;;4982840;28;20500;-74
2022/12/02 01:57:48;;;;;;;73.45;35.15;;;;;;;;;;5007406;28;20125;-73
2022/12/02 02:00:15;;;;;;;79.88;37.42;;;;;;;;;;4989916;28;20071;-74
2022/12/02 02:02:41;;;;;;;73.68;36.22;;;;;;;;;;4982912;28;20040;-74
2022/12/02 02:05:10;;;;;;;78.35;36.70;;;;;;;;;;5012093;28;20025;-75
2022/12/02 02:07:37;;;;;;;84.30;38.28;;;;;;;;;;5002218;28;20053;-76
2022/12/02 02:10:07;;;;;;;69.95;36.83;;;;;;;;;;5005392;28;20054;-74
2022/12/02 02:12:33;;;;;;;71.88;36.20;;;;;;;;;;4992262;28;20030;-74
2022/12/02 02:14:59;;;;;;;60.90;31.60;;;;;;;;;;4999199;28;20117;-74
2022/12/02 02:17:25;;;;;;;71.28;34.72;;;;;;;;;;4994903;28;20113;-73
2022/12/02 02:19:51;;;;;;;79.03;38.13;;;;;;;;;;4991118;28;20113;-74
2022/12/02 02:22:20;;;;;;;79.47;38.70;;;;;;;;;;4993179;28;20030;-74
2022/12/02 02:24:46;;;;;;;76.22;37.85;;;;;;;;;;5004170;28;20097;-74
2022/12/02 02:27:12;;;;;;;74.75;36.35;;;;;;;;;;4999243;28;20026;-74
2022/12/02 02:29:38;;;;;;;73.00;34.97;;;;;;;;;;4986297;28;20049;-74
2022/12/02 02:32:04;;;;;;;83.78;38.42;;;;;;;;;;4986963;28;20121;-73
2022/12/02 02:34:30;;;;;;;77.35;38.35;;;;;;;;;;4991172;28;20034;-73
2022/12/02 02:36:56;;;;;;;72.95;36.30;;;;;;;;;;4998269;28;20022;-74
2022/12/02 02:39:23;;;;;;;77.35;36.83;;;;;;;;;;4992254;28;20026;-73
2022/12/02 02:41:49;;;;;;;66.65;35.22;;;;;;;;;;5003414;28;20124;-74
2022/12/02 02:44:16;;;;;;;71.65;34.20;;;;;;;;;;4997237;28;20022;-74
2022/12/02 02:46:42;;;;;;;78.32;36.45;;;;;;;;;;4999379;28;20069;-74
2022/12/02 02:49:08;;;;;;;73.57;36.25;;;;;;;;;;4993395;28;20026;-74
2022/12/02 02:51:36;;;;;;;66.30;32.90;;;;;;;;;;4984115;28;20087;-71
2022/12/02 02:54:03;;;;;;;65.53;33.50;;;;;;;;;;4987263;28;20088;-74
2022/12/02 02:56:29;;;;;;;62.50;34.00;;;;;;;;;;4977704;28;20030;-75
2022/12/02 02:58:55;;;;;;;59.95;31.15;;;;;;;;;;5010780;28;20021;-74
2022/12/02 03:01:25;;;;;;;53.22;29.92;;;;;;;;;;4981426;28;20022;-74
2022/12/02 03:03:54;;;;;;;49.05;29.10;;;;;;;;;;4987897;28;20026;-74
2022/12/02 03:06:20;;;;;;;55.67;29.58;;;;;;;;;;4989431;28;20022;-74
2022/12/02 03:08:47;;;;;;;56.38;30.67;;;;;;;;;;4980272;28;20048;-75
2022/12/02 03:11:14;;;;;;;56.60;30.10;;;;;;;;;;4982016;28;20030;-75
2022/12/02 03:13:40;;;;;;;59.85;29.42;;;;;;;;;;5007140;28;20030;-74
2022/12/02 03:16:08;;;;;;;61.40;31.27;;;;;;;;;;4987058;28;20030;-76
2022/12/02 03:18:34;;;;;;;51.03;27.13;;;;;;;;;;5008259;28;20065;-74
2022/12/02 03:21:00;;;;;;;51.13;29.08;;;;;;;;;;4997779;28;20519;-74
2022/12/02 03:23:27;;;;;;;52.55;28.90;;;;;;;;;;5008911;28;20263;-74
2022/12/02 03:25:53;;;;;;;52.55;28.63;;;;;;;;;;5003029;28;20025;-76
2022/12/02 03:28:22;;;;;;;49.80;28.58;;;;;;;;;;4984026;28;20555;-75
2022/12/02 03:30:48;;;;;;;50.70;28.75;;;;;;;;;;5010376;28;20444;-74
2022/12/02 03:33:14;;;;;;;54.83;30.02;;;;;;;;;;4982714;28;20034;-75
2022/12/02 03:35:40;;;;;;;53.17;28.60;;;;;;;;;;4991125;28;20034;-74
2022/12/02 03:38:08;;;;;;;54.80;29.02;;;;;;;;;;4987395;28;20025;-75
2022/12/02 03:40:34;;;;;;;51.33;29.50;;;;;;;;;;4999474;28;20110;-74
2022/12/02 03:43:01;;;;;;;48.33;28.20;;;;;;;;;;5010463;28;20022;-75
2022/12/02 03:45:27;;;;;;;49.08;27.52;;;;;;;;;;4981434;28;20149;-75
2022/12/02 03:47:55;;;;;;;49.10;27.52;;;;;;;;;;5005744;28;20030;-75
2022/12/02 03:50:22;;;;;;;51.53;28.88;;;;;;;;;;4989338;28;20377;-75
2022/12/02 03:52:48;;;;;;;50.83;28.83;;;;;;;;;;4983834;28;20030;-76
2022/12/02 03:55:14;;;;;;;52.22;29.05;;;;;;;;;;5021019;28;20054;-76
2022/12/02 03:57:41;;;;;;;52.63;28.98;;;;;;;;;;5011511;28;20037;-74
2022/12/02 04:00:07;;;;;;;56.42;29.85;;;;;;;;;;4995669;28;20113;-74
2022/12/02 04:02:36;;;;;;;50.05;28.75;;;;;;;;;;5000233;28;20112;-75
2022/12/02 04:05:02;;;;;;;52.63;27.63;;;;;;;;;;4986967;28;20025;-75
2022/12/02 04:07:28;;;;;;;54.83;30.25;;;;;;;;;;4990068;28;20029;-75
2022/12/02 04:09:54;;;;;;;54.15;28.75;;;;;;;;;;5002489;28;20041;-73
2022/12/02 04:12:20;;;;;;;54.53;29.27;;;;;;;;;;5000967;28;20182;-74
2022/12/02 04:14:46;;;;;;;52.35;30.20;;;;;;;;;;4991537;28;20030;-73
2022/12/02 04:17:12;;;;;;;52.17;29.88;;;;;;;;;;4988134;28;20026;-74
2022/12/02 04:19:38;;;;;;;58.38;30.90;;;;;;;;;;4982185;28;20164;-74
2022/12/02 04:22:04;;;;;;;51.60;28.02;;;;;;;;;;5002760;28;20053;-74
2022/12/02 04:24:30;;;;;;;52.95;31.13;;;;;;;;;;4989377;28;20018;-74
2022/12/02 04:27:07;;;;;;;59.78;31.63;;;;;;;;;;4979451;28;20396;-74
2022/12/02 04:29:35;;;;;;;55.78;30.70;;;;;;;;;;4989334;28;20026;-75
2022/12/02 04:32:01;;;;;;;58.55;31.60;;;;;;;;;;4985604;28;20395;-75
2022/12/02 04:34:27;;;;;;;62.00;33.83;;;;;;;;;;4981934;28;20101;-76
2022/12/02 04:36:56;;;;;;;56.83;31.42;;;;;;;;;;5009145;28;20022;-76
2022/12/02 04:39:22;;;;;;;58.00;32.10;;;;;;;;;;4979545;28;20013;-74
2022/12/02 04:41:48;;;;;;;61.25;33.92;;;;;;;;;;4994811;28;20026;-76
2022/12/02 04:44:14;;;;;;;67.90;34.65;;;;;;;;;;4983534;28;20492;-75
2022/12/02 04:46:40;;;;;;;59.63;32.55;;;;;;;;;;5008054;28;20022;-76
2022/12/02 04:49:06;;;;;;;65.95;34.72;;;;;;;;;;4978133;28;20061;-75
2022/12/02 04:51:32;;;;;;;61.70;32.42;;;;;;;;;;4988842;28;20570;-74
2022/12/02 04:53:58;;;;;;;64.22;32.88;;;;;;;;;;4983617;28;20030;-75
2022/12/02 04:56:24;;;;;;;68.82;36.00;;;;;;;;;;4998141;28;20034;-74
2022/12/02 04:58:50;;;;;;;69.07;36.38;;;;;;;;;;5008374;28;20037;-75
2022/12/02 05:01:16;;;;;;;63.92;34.67;;;;;;;;;;4994369;28;20022;-76
2022/12/02 05:03:42;;;;;;;77.05;37.60;;;;;;;;;;5002830;28;20029;-77
2022/12/02 05:06:08;;;;;;;73.03;35.92;;;;;;;;;;5001974;28;20398;-78
2022/12/02 05:08:36;;;;;;;68.55;35.50;;;;;;;;;;4997043;28;20522;-77
2022/12/02 05:11:03;;;;;;;67.47;36.25;;;;;;;;;;4992696;28;20513;-75
2022/12/02 05:13:29;;;;;;;62.55;33.38;;;;;;;;;;5006684;28;20088;-75
2022/12/02 05:15:55;;;;;;;66.50;35.53;;;;;;;;;;5001299;28;20114;-75
2022/12/02 05:18:21;;;;;;;64.20;33.50;;;;;;;;;;4998816;28;20105;-76
2022/12/02 05:20:47;;;;;;;62.38;32.00;;;;;;;;;;5008226;28;20050;-75
2022/12/02 05:23:16;;;;;;;63.67;32.67;;;;;;;;;;4978135;28;20101;-75
2022/12/02 05:25:46;;;;;;;57.70;31.50;;;;;;;;;;5004626;28;20034;-74
2022/12/02 05:28:12;;;;;;;58.83;32.75;;;;;;;;;;5002901;28;20033;-74
2022/12/02 05:30:39;;;;;;;62.58;33.40;;;;;;;;;;4980455;28;20121;-75
2022/12/02 05:33:05;;;;;;;65.45;34.40;;;;;;;;;;4990810;28;20096;-75
2022/12/02 05:35:36;;;;;;;58.03;31.70;;;;;;;;;;4992176;28;20034;-75
2022/12/02 05:38:05;;;;;;;56.13;31.00;;;;;;;;;;4983317;28;20034;-76
2022/12/02 05:40:34;;;;;;;59.45;31.65;;;;;;;;;;4997970;28;20022;-76
2022/12/02 05:43:18;;;;;;;60.35;31.98;;;;;;;;;;4990988;28;20079;-76
2022/12/02 05:45:44;;;;;;;58.38;31.70;;;;;;;;;;4982291;28;20483;-76
2022/12/02 05:48:20;;;;;;;52.25;29.00;;;;;;;;;;5000566;28;20029;-76
2022/12/02 05:50:50;;;;;;;56.13;30.73;;;;;;;;;;4990198;28;20068;-77
2022/12/02 05:53:24;;;;;;;53.78;30.15;;;;;;;;;;4962285;28;20033;-77
2022/12/02 05:55:58;;;;;;;52.63;29.98;;;;;;;;;;4993728;28;20503;-77
2022/12/02 05:58:25;;;;;;;55.42;30.40;;;;;;;;;;4998024;28;20396;-76
2022/12/02 06:01:04;;;;;;;53.25;29.92;;;;;;;;;;4990643;28;20029;-77
2022/12/02 06:03:38;;;;;;;56.05;28.50;;;;;;;;;;4980136;28;20022;-75
2022/12/02 06:06:11;;;;;;;51.85;27.73;;;;;;;;;;4983326;28;20062;-76
2022/12/02 06:08:39;;;;;;;52.70;28.80;;;;;;;;;;4988345;28;20033;-76
2022/12/02 06:11:16;;;;;;;56.85;30.02;;;;;;;;;;4994932;28;20027;-73
2022/12/02 06:13:44;;;;;;;53.15;29.20;;;;;;;;;;5006704;28;20045;-75
2022/12/02 06:16:17;;;;;;;49.00;27.65;;;;;;;;;;4988698;28;20037;-77
2022/12/02 06:18:43;;;;;;;48.22;27.45;;;;;;;;;;4992729;28;20504;-75
2022/12/02 06:21:16;;;;;;;52.83;29.77;;;;;;;;;;4980974;28;20030;-76
2022/12/02 06:23:52;;;;;;;52.83;30.25;;;;;;;;;;5013689;28;20111;-76
2022/12/02 06:26:22;;;;;;;53.13;28.67;;;;;;;;;;4998286;28;20032;-78
2022/12/02 06:28:55;;;;;;;54.53;30.83;;;;;;;;;;4999321;28;20034;-76
2022/12/02 06:31:27;;;;;;;52.15;30.63;;;;;;;;;;4984299;28;20117;-76
2022/12/02 06:34:01;;;;;;;57.60;30.45;;;;;;;;;;5006132;28;20121;-77
2022/12/02 06:36:30;;;;;;;56.53;32.03;;;;;;;;;;5008137;28;20133;-75
2022/12/02 06:39:00;;;;;;;52.47;29.30;;;;;;;;;;4980275;28;20484;-76
2022/12/02 06:41:30;;;;;;;59.30;32.33;;;;;;;;;;5005929;28;20031;-76
2022/12/02 06:46:45;;;;;;;55.42;30.00;;;;;;;;;;4999539;28;20505;-76
2022/12/02 06:49:25;;;;;;;57.85;29.85;;;;;;;;;;5010600;28;20029;-77
2022/12/02 06:52:17;;;;;;;49.28;27.25;;;;;;;;;;4985447;28;20403;-76
2022/12/02 06:54:50;;;;;;;48.38;28.13;;;;;;;;;;4978837;28;20068;-76
2022/12/02 06:57:20;;;;;;;46.92;29.02;;;;;;;;;;4982273;28;20026;-76
2022/12/02 06:59:48;;;;;;;50.33;28.58;;;;;;;;;;5006490;28;20022;-75
2022/12/02 07:02:26;;;;;;;50.30;28.67;;;;;;;;;;5006481;28;20456;-77
2022/12/02 07:04:53;;;;;;;47.55;27.73;;;;;;;;;;4980442;28;20090;-77
2022/12/02 07:07:26;;;;;;;44.88;26.10;;;;;;;;;;5009808;28;20026;-75
2022/12/02 07:09:56;;;;;;;43.70;26.60;;;;;;;;;;5003655;28;20030;-76
2022/12/02 07:12:41;;;;;;;44.10;25.98;;;;;;;;;;4983790;28;20108;-77
2022/12/02 07:15:10;;;;;;;43.60;25.50;;;;;;;;;;4992543;28;20037;-76
2022/12/02 07:17:42;;;;;;;40.80;24.02;;;;;;;;;;4970991;28;20100;-76
2022/12/02 07:20:10;;;;;;;43.38;23.88;;;;;;;;;;4987396;28;20061;-75
2022/12/02 07:22:43;;;;;;;43.15;24.80;;;;;;;;;;4999484;28;20544;-77
2022/12/02 07:25:14;;;;;;;37.20;22.90;;;;;;;;;;4990991;28;20549;-76
2022/12/02 07:27:40;;;;;;;;;;;;;;;;;;5001096;28;20395;-74
2022/12/02 07:30:25;;;;;;;40.75;22.73;;;;;;;;;;5003179;28;20009;-76
2022/12/02 07:32:56;;;;;;;40.25;23.05;;;;;;;;;;5010588;28;20022;-77
2022/12/02 07:35:24;;;;;;;38.10;22.65;;;;;;;;;;4998968;28;20022;-77
2022/12/02 07:37:53;;;;;;;36.83;23.38;;;;;;;;;;5005775;28;20026;-76
2022/12/02 07:40:19;;;;;;;42.70;23.23;;;;;;;;;;4988404;28;20088;-76
2022/12/02 07:42:46;;;;;;;36.55;22.35;;;;;;;;;;4979609;28;20045;-76
2022/12/02 07:45:13;;;;;;;41.22;24.55;;;;;;;;;;5010130;28;20019;-77
2022/12/02 07:47:42;;;;;;;36.03;21.85;;;;;;;;;;4983337;28;20026;-77
2022/12/02 07:50:08;;;;;;;42.30;23.40;;;;;;;;;;4985274;28;20492;-68
2022/12/02 07:52:34;;;;;;;43.40;24.63;;;;;;;;;;5007523;28;20038;-70
2022/12/02 07:55:12;;;;;;;40.10;23.38;;;;;;;;;;4997257;28;20026;-76
2022/12/02 07:57:38;;;;;;;38.92;22.85;;;;;;;;;;5006501;28;20034;-75
2022/12/02 08:00:05;;;;;;;40.63;24.40;;;;;;;;;;5003469;28;20025;-76
2022/12/02 08:02:34;;;;;;;37.33;22.63;;;;;;;;;;4999080;28;20022;-76
2022/12/02 08:05:06;;;;;;;38.33;21.92;;;;;;;;;;5009137;28;20117;-76
2022/12/02 08:07:38;;;;;;;38.78;23.88;;;;;;;;;;4981681;28;20395;-76
2022/12/02 08:10:08;;;;;;;41.08;24.98;;;;;;;;;;5002825;28;20114;-76
2022/12/02 08:12:39;;;;;;;42.83;24.50;;;;;;;;;;4989758;28;20504;-77
2022/12/02 08:15:13;;;;;;;46.40;27.75;;;;;;;;;;4979657;28;20026;-75
2022/12/02 08:17:39;;;;;;;43.78;25.42;;;;;;;;;;5007574;28;20026;-75
2022/12/02 08:20:08;;;;;;;45.80;27.77;;;;;;;;;;4984852;28;20034;-75
2022/12/02 08:22:37;;;;;;;47.15;26.88;;;;;;;;;;4989907;28;20075;-77
2022/12/02 08:25:04;;;;;;;42.05;24.45;;;;;;;;;;4992966;28;20029;-75
2022/12/02 08:27:30;;;;;;;52.72;28.88;;;;;;;;;;4980948;28;20033;-76
2022/12/02 08:29:56;;;;;;;49.95;29.17;;;;;;;;;;4986555;28;20026;-76
2022/12/02 08:32:25;;;;;;;49.28;28.05;;;;;;;;;;5006269;28;20044;-75
2022/12/02 08:34:51;;;;;;;48.03;26.98;;;;;;;;;;4996502;28;20087;-76
2022/12/02 08:37:27;;;;;;;47.05;26.33;;;;;;;;;;4992782;28;20132;-75
2022/12/02 08:39:55;;;;;;;48.63;27.95;;;;;;;;;;4984973;28;20176;-75
2022/12/02 08:42:22;;;;;;;50.50;28.42;;;;;;;;;;5005831;28;20026;-76
2022/12/02 08:44:50;;;;;;;51.53;29.48;;;;;;;;;;4979362;28;20034;-75
2022/12/02 08:47:16;;;;;;;55.95;30.48;;;;;;;;;;4990663;28;20026;-76
2022/12/02 08:49:52;;;;;;;;;;;;;;;;;;;;;
2022/12/02 08:52:21;;;;;;;53.60;28.10;;;;;;;;;;5001471;28;20032;-75
2022/12/02 08:54:48;;;;;;;53.90;29.23;;;;;;;;;;4975933;28;20026;-76
2022/12/02 08:59:44;;;;;;;58.03;29.75;;;;;;;;;;4975716;28;20051;-76
2022/12/02 09:02:11;;;;;;;53.97;29.65;;;;;;;;;;4986477;28;20097;-75
2022/12/02 09:04:37;;;;;;;52.28;29.65;;;;;;;;;;4980582;28;20504;-75
2022/12/02 09:07:03;;;;;;;50.03;29.38;;;;;;;;;;4991419;28;20118;-78
2022/12/02 09:09:29;;;;;;;53.13;26.75;;;;;;;;;;4961551;28;20035;-75
2022/12/02 09:11:57;;;;;;;55.10;29.60;;;;;;;;;;4966136;28;20066;-74
2022/12/02 09:14:26;;;;;;;52.92;29.25;;;;;;;;;;4965124;28;20026;-76
2022/12/02 09:16:52;;;;;;;55.03;30.65;;;;;;;;;;4956609;28;20107;-75
2022/12/02 09:19:19;;;;;;;54.20;28.35;;;;;;;;;;4957747;28;20022;-75
2022/12/02 09:21:47;;;;;;;57.85;30.30;;;;;;;;;;4964109;28;20114;-75
2022/12/02 09:24:13;;;;;;;48.90;27.83;;;;;;;;;;4964009;28;20031;-75
2022/12/02 09:26:40;;;;;;;56.85;30.58;;;;;;;;;;4958395;28;20027;-75
2022/12/02 09:29:06;;;;;;;48.08;27.85;;;;;;;;;;4969110;28;20469;-75
2022/12/02 09:31:34;;;;;;;48.15;26.75;;;;;;;;;;4958294;28;20027;-74
2022/12/02 09:34:00;;;;;;;44.80;25.77;;;;;;;;;;4963264;28;20028;-74
2022/12/02 09:36:32;;;;;;;45.13;25.83;;;;;;;;;;4966327;28;20216;-75
2022/12/02 09:38:58;;;;;;;47.20;26.60;;;;;;;;;;4955908;28;20028;-74
2022/12/02 09:41:27;;;;;;;45.42;24.98;;;;;;;;;;4958641;28;20023;-75
2022/12/02 09:43:56;;;;;;;43.35;24.33;;;;;;;;;;4961287;28;20019;-74
2022/12/02 09:46:24;;;;;;;44.40;24.90;;;;;;;;;;4958650;28;20098;-75
2022/12/02 09:48:50;;;;;;;46.15;25.58;;;;;;;;;;4964392;28;20031;-76
2022/12/02 09:51:16;;;;;;;46.95;26.55;;;;;;;;;;4964870;28;20027;-75
2022/12/02 09:53:42;;;;;;;44.88;25.38;;;;;;;;;;4960531;28;20023;-74
2022/12/02 09:56:18;;;;;;;49.78;25.65;;;;;;;;;;4954385;28;20023;-74
2022/12/02 09:58:46;;;;;;;48.67;25.63;;;;;;;;;;4970336;28;20031;-74
2022/12/02 10:01:15;;;;;;;45.30;25.02;;;;;;;;;;4960116;28;20393;-74
2022/12/02 10:03:42;;;;;;;45.05;25.45;;;;;;;;;;4969559;28;20094;-73
2022/12/02 10:06:12;;;;;;;44.78;25.20;;;;;;;;;;4966710;28;20114;-74
2022/12/02 10:08:38;;;;;;;46.67;25.15;;;;;;;;;;4975099;28;20050;-74
2022/12/02 10:11:04;;;;;;;45.05;24.05;;;;;;;;;;4960834;28;20042;-75
2022/12/02 10:13:32;;;;;;;38.78;23.15;;;;;;;;;;4970689;28;20050;-73
2022/12/02 10:16:01;;;;;;;46.17;22.73;;;;;;;;;;4966033;28;20057;-74
2022/12/02 10:18:28;;;;;;;40.65;22.83;;;;;;;;;;4969382;28;20038;-72
2022/12/02 10:20:57;;;;;;;41.50;23.30;;;;;;;;;;4959073;28;20491;-73
2022/12/02 10:23:25;;;;;;;39.13;22.52;;;;;;;;;;4970097;28;20024;-74
2022/12/02 10:25:57;;;;;;;39.65;23.33;;;;;;;;;;4965139;28;20033;-73
2022/12/02 10:28:33;;;;;;;44.85;24.23;;;;;;;;;;4961833;28;20023;-75
2022/12/02 10:31:04;;;;;;;47.30;25.50;;;;;;;;;;4959478;28;20397;-75
2022/12/02 10:33:34;;;;;;;42.05;24.27;;;;;;;;;;4967020;28;20055;-73
2022/12/02 10:36:05;;;;;;;43.63;23.67;;;;;;;;;;4955482;28;20035;-77
2022/12/02 10:38:57;;;;;;;40.53;23.17;;;;;;;;;;4967782;28;20033;-75
2022/12/02 10:41:24;;;;;;;40.50;23.17;;;;;;;;;;4945867;28;20031;-74
2022/12/02 10:43:50;;;;;;;42.55;23.67;;;;;;;;;;4965920;28;20034;-74
2022/12/02 10:46:18;;;;;;;45.05;23.95;;;;;;;;;;4966842;28;20110;-74
2022/12/02 10:48:54;;;;;;;43.90;24.75;;;;;;;;;;4959931;28;20038;-74
2022/12/02 10:51:21;;;;;;;42.03;23.98;;;;;;;;;;4935088;29;20040;-74
2022/12/02 10:53:51;;;;;;;43.53;24.75;;;;;;;;;;4952591;28;20377;-74
2022/12/02 10:56:24;;;;;;;46.58;24.52;;;;;;;;;;4963999;28;20401;-75
2022/12/02 10:59:02;;;;;;;45.00;24.92;;;;;;;;;;4970855;28;20058;-75
2022/12/02 11:01:28;;;;;;;41.97;25.25;;;;;;;;;;4960331;28;20030;-76
2022/12/02 11:04:01;;;;;;;45.65;24.30;;;;;;;;;;4966939;28;20031;-75
2022/12/02 11:06:29;;;;;;;49.25;25.45;;;;;;;;;;4975637;28;20550;-74
2022/12/02 11:08:58;;;;;;;40.35;23.92;;;;;;;;;;4965414;28;20031;-72
2022/12/02 11:11:27;;;;;;;46.30;25.42;;;;;;;;;;4978074;28;20028;-75
2022/12/02 11:13:56;;;;;;;42.45;24.10;;;;;;;;;;4974300;28;20027;-74
2022/12/02 11:16:28;;;;;;;43.47;23.83;;;;;;;;;;4967884;28;20027;-76
2022/12/02 11:19:10;;;;;;;42.45;23.17;;;;;;;;;;4957451;29;20062;-75
2022/12/02 11:21:40;;;;;;;41.28;22.88;;;;;;;;;;4962578;28;20076;-74
2022/12/02 11:24:27;;;;;;;45.90;25.83;;;;;;;;;;4963968;28;20513;-75
2022/12/02 11:27:02;;;;;;;45.63;24.40;;;;;;;;;;4972117;28;20110;-75
2022/12/02 11:29:40;;;;;;;45.90;25.10;;;;;;;;;;4961495;28;20030;-79
2022/12/02 11:32:24;;;;;;;44.58;25.38;;;;;;;;;;4962535;28;20494;-75
2022/12/02 11:34:53;;;;;;;40.90;22.83;;;;;;;;;;4970549;28;20071;-76
2022/12/02 11:37:32;;;;;;;45.45;25.20;;;;;;;;;;4973277;28;20111;-77
2022/12/02 11:40:04;;;;;;;44.83;24.15;;;;;;;;;;4972074;28;20054;-77
2022/12/02 11:42:34;;;;;;;44.78;23.58;;;;;;;;;;4976116;28;20035;-78
2022/12/02 11:45:25;;;;;;;45.90;24.83;;;;;;;;;;4988468;28;20023;-76
2022/12/02 11:47:55;;;;;;;44.22;24.65;;;;;;;;;;4982801;28;20031;-78
2022/12/02 11:50:27;;;;;;;45.30;24.02;;;;;;;;;;4972581;28;20031;-78
2022/12/02 11:52:59;;;;;;;46.65;24.40;;;;;;;;;;4988580;28;20038;-77
2022/12/02 11:55:31;;;;;;;44.72;23.58;;;;;;;;;;4962956;28;20454;-77
2022/12/02 11:58:03;;;;;;;44.78;25.02;;;;;;;;;;4965587;28;20043;-75
2022/12/02 12:00:55;;;;;;;45.20;25.25;;;;;;;;;;4968006;28;20022;-77
2022/12/02 12:03:24;;;;;;;45.03;25.00;;;;;;;;;;4948268;28;20059;-77
2022/12/02 12:06:08;;;;;;;44.88;25.05;;;;;;;;;;4968059;28;20035;-77
2022/12/02 12:08:35;;;;;;;43.30;24.67;;;;;;;;;;4969177;28;20027;-75
2022/12/02 12:11:20;;;;;;;46.22;25.48;;;;;;;;;;4957228;28;20030;-74
2022/12/02 12:14:01;;;;;;;46.28;25.92;;;;;;;;;;4966663;28;20078;-76
2022/12/02 12:16:27;;;;;;;;;;;;;;;;;;4965763;28;20122;-76
2022/12/02 12:18:59;;;;;;;46.53;24.25;;;;;;;;;;4968680;28;19993;-75
2022/12/02 12:21:32;;;;;;;46.78;25.17;;;;;;;;;;4958933;28;20019;-75
2022/12/02 12:24:18;;;;;;;47.15;25.48;;;;;;;;;;4963440;28;20058;-76
2022/12/02 12:26:46;;;;;;;47.28;23.35;;;;;;;;;;4969517;28;20018;-75
2022/12/02 12:29:15;;;;;;;51.85;26.23;;;;;;;;;;4957331;28;20022;-75
2022/12/02 12:31:41;;;;;;;44.33;24.88;;;;;;;;;;4966554;28;20032;-75
2022/12/02 12:34:10;;;;;;;44.08;25.45;;;;;;;;;;4962953;28;20030;-75
2022/12/02 12:36:37;;;;;;;55.60;26.92;;;;;;;;;;4972694;28;20031;-74
2022/12/02 12:39:08;;;;;;;50.38;26.77;;;;;;;;;;4956919;28;20047;-75
2022/12/02 12:41:35;;;;;;;45.92;25.38;;;;;;;;;;4965993;28;20030;-77
2022/12/02 12:44:01;;;;;;;44.47;24.58;;;;;;;;;;4964411;28;20050;-74
2022/12/02 12:46:29;;;;;;;45.25;25.55;;;;;;;;;;4960274;28;20501;-76
2022/12/02 12:49:03;;;;;;;45.92;25.15;;;;;;;;;;4969244;28;20129;-75
2022/12/02 12:51:29;;;;;;;53.63;25.88;;;;;;;;;;4959219;28;20030;-77
2022/12/02 12:53:58;;;;;;;49.10;26.83;;;;;;;;;;4964860;28;20067;-77
2022/12/02 12:56:24;;;;;;;52.25;27.30;;;;;;;;;;4968060;28;20113;-76
2022/12/02 12:58:50;;;;;;;56.42;28.00;;;;;;;;;;4957041;28;20067;-75
2022/12/02 13:01:22;;;;;;;51.88;28.17;;;;;;;;;;4970717;28;20023;-75
2022/12/02 13:03:53;;;;;;;50.75;28.05;;;;;;;;;;4962735;28;20023;-77
2022/12/02 13:06:24;;;;;;;;;;;;;;;;;;4962921;28;20032;-78
2022/12/02 13:08:51;;;;;;;50.92;26.63;;;;;;;;;;4970291;28;19970;-75
2022/12/02 13:11:19;;;;;;;50.33;27.33;;;;;;;;;;4958542;28;20038;-76
2022/12/02 13:13:45;;;;;;;49.15;26.42;;;;;;;;;;4966197;28;20053;-76
2022/12/02 13:16:12;;;;;;;55.13;28.30;;;;;;;;;;4965180;28;20034;-77
2022/12/02 13:18:38;;;;;;;51.35;27.13;;;;;;;;;;4967449;28;20042;-77
2022/12/02 13:21:04;;;;;;;54.45;27.42;;;;;;;;;;4956774;28;20035;-76
2022/12/02 13:23:35;;;;;;;52.38;27.58;;;;;;;;;;4965218;28;20067;-75
2022/12/02 13:26:01;;;;;;;53.05;26.45;;;;;;;;;;4961899;28;20038;-75
2022/12/02 13:28:30;;;;;;;56.67;27.85;;;;;;;;;;4959096;28;20083;-74
2022/12/02 13:31:01;;;;;;;50.25;25.88;;;;;;;;;;4969085;28;20038;-75
2022/12/02 13:33:27;;;;;;;45.05;24.75;;;;;;;;;;4956999;28;20448;-76
2022/12/02 13:35:53;;;;;;;50.25;25.38;;;;;;;;;;4962576;28;20482;-75
2022/12/02 13:38:22;;;;;;;48.92;25.20;;;;;;;;;;4963811;28;20030;-75
2022/12/02 13:40:48;;;;;;;53.17;27.88;;;;;;;;;;4955738;28;20023;-75
2022/12/02 13:43:14;;;;;;;56.80;27.35;;;;;;;;;;4969349;28;20031;-74
2022/12/02 13:45:43;;;;;;;54.65;27.15;;;;;;;;;;4960466;28;20579;-73
2022/12/02 13:48:09;;;;;;;53.92;25.25;;;;;;;;;;4961735;28;20114;-76
2022/12/02 13:50:36;;;;;;;51.78;25.95;;;;;;;;;;4966221;28;20050;-77
2022/12/02 13:53:04;;;;;;;46.58;23.95;;;;;;;;;;4955200;28;20082;-77
2022/12/02 13:55:32;;;;;;;46.85;25.15;;;;;;;;;;4965640;28;20035;-77
2022/12/02 13:57:58;;;;;;;48.88;23.60;;;;;;;;;;4961019;28;20061;-74
2022/12/02 14:00:25;;;;;;;48.08;25.10;;;;;;;;;;4960074;28;20135;-76
2022/12/02 14:02:53;;;;;;;48.60;25.70;;;;;;;;;;4969494;28;20050;-75
2022/12/02 14:05:19;;;;;;;46.20;23.85;;;;;;;;;;4956205;28;20033;-77
2022/12/02 14:07:45;;;;;;;44.63;24.05;;;;;;;;;;4963581;28;20027;-78
2022/12/02 14:10:14;;;;;;;43.70;22.67;;;;;;;;;;4962903;28;20046;-77
2022/12/02 14:12:40;;;;;;;43.72;23.65;;;;;;;;;;4957573;28;20497;-75
2022/12/02 14:15:09;;;;;;;41.15;22.70;;;;;;;;;;4968842;28;20027;-75
2022/12/02 14:17:35;;;;;;;45.92;22.60;;;;;;;;;;4952994;28;20027;-74
2022/12/02 14:20:10;;;;;;;42.08;22.35;;;;;;;;;;4956154;28;20022;-77
2022/12/02 14:22:43;;;;;;;42.95;22.60;;;;;;;;;;4950716;28;20045;-77
2022/12/02 14:25:09;;;;;;;40.28;21.45;;;;;;;;;;4960156;28;20162;-77
2022/12/02 14:27:38;;;;;;;41.45;22.75;;;;;;;;;;4963975;28;20042;-76
2022/12/02 14:30:04;;;;;;;42.47;22.58;;;;;;;;;;4952540;28;20030;-76
2022/12/02 14:32:31;;;;;;;43.50;22.08;;;;;;;;;;4964418;28;20031;-75
2022/12/02 14:34:56;;;;;;;43.97;23.20;;;;;;;;;;4971770;28;20110;-76
2022/12/02 14:37:23;;;;;;;43.85;22.85;;;;;;;;;;4959119;28;20022;-77